Time;durP1;ratioP1;P1;durP2;ratioP2;P2;SDS_P1;SDS_P2;PMS_P1;PMS_P2;Temp;Humidity;BMP_temperature;BMP_pressure;BME280_temperature;BME280_humidity;BME280_pressure;Samples;Min_cycle;Max_cycle;Signal;HPM_P1;HPM_P2
2023/01/09 00:01:41;;;;;;;1.33;1.23;;;;;;;4.75;92.79;98777.84;5115402;28;20035;-66
2023/01/09 00:04:12;;;;;;;5.47;3.42;;;;;;;4.73;92.82;98784.53;5115126;28;20044;-66
2023/01/09 00:06:42;;;;;;;6.43;2.80;;;;;;;4.77;93.30;98786.25;5115461;28;20047;-66
2023/01/09 00:09:11;;;;;;;3.67;2.72;;;;;;;4.79;93.14;98782.06;5115362;28;20077;-66
2023/01/09 00:11:40;;;;;;;1.07;1.07;;;;;;;4.81;93.06;98777.88;5115265;28;20067;-66
2023/01/09 00:14:09;;;;;;;2.05;1.95;;;;;;;4.86;93.17;98777.88;5115028;28;20284;-66
2023/01/09 00:16:38;;;;;;;2.90;2.65;;;;;;;4.87;93.07;98775.38;5114910;28;20130;-66
2023/01/09 00:19:07;;;;;;;2.73;2.27;;;;;;;4.84;93.11;98770.31;5115663;28;20036;-66
2023/01/09 00:21:38;;;;;;;2.42;2.28;;;;;;;4.82;93.46;98763.56;5114705;28;20032;-66
2023/01/09 00:24:08;;;;;;;3.55;3.08;;;;;;;4.80;93.45;98761.00;5114706;28;20075;-66
2023/01/09 00:26:37;;;;;;;5.78;2.85;;;;;;;4.80;93.53;98755.94;5114716;28;20039;-66
2023/01/09 00:29:10;;;;;;;8.02;2.92;;;;;;;4.80;93.57;98750.06;5114672;28;20051;-66
2023/01/09 00:31:39;;;;;;;9.98;4.88;;;;;;;4.82;93.55;98759.34;5114607;28;20053;-66
2023/01/09 00:34:10;;;;;;;2.58;2.40;;;;;;;4.84;93.47;98759.34;5114431;28;20181;-66
2023/01/09 00:36:40;;;;;;;21.42;4.43;;;;;;;4.86;93.67;98747.56;5114563;28;20040;-66
2023/01/09 00:39:09;;;;;;;2.17;1.98;;;;;;;4.88;93.53;98743.34;5114768;28;20131;-66
2023/01/09 00:41:41;;;;;;;3.05;2.78;;;;;;;4.89;93.83;98725.69;5114453;28;20046;-66
2023/01/09 00:44:15;;;;;;;2.35;2.15;;;;;;;4.87;93.59;98737.44;5114418;28;20414;-66
2023/01/09 00:46:47;;;;;;;2.53;2.35;;;;;;;4.85;93.54;98731.53;5114409;27;20040;-66
2023/01/09 00:49:18;;;;;;;3.72;3.42;;;;;;;4.86;93.47;98723.13;5114321;28;20158;-66
2023/01/09 00:51:49;;;;;;;2.55;2.35;;;;;;;4.88;93.67;98718.09;5114344;28;20082;-66
2023/01/09 00:54:20;;;;;;;1.90;1.80;;;;;;;4.88;93.89;98713.88;5113969;28;20047;-66
2023/01/09 00:56:50;;;;;;;1.88;1.77;;;;;;;4.87;93.81;98712.16;5114262;28;20134;-66
2023/01/09 00:59:18;;;;;;;9.23;6.88;;;;;;;4.87;93.70;98707.13;5114169;28;20081;-65
2023/01/09 01:01:47;;;;;;;1.60;1.50;;;;;;;4.89;93.59;98705.47;5114440;28;20066;-66
2023/01/09 01:09:35;;;;;;;7.95;3.63;;;;;;;4.91;93.66;98711.38;5114089;28;20067;-66
2023/01/09 01:12:05;;;;;;;2.47;2.27;;;;;;;4.93;93.64;98707.16;5114402;28;20496;-66
2023/01/09 01:14:36;;;;;;;5.68;4.00;;;;;;;4.91;93.75;98708.84;5113993;28;20039;-66
2023/01/09 01:17:05;;;;;;;2.75;2.55;;;;;;;4.87;93.77;98697.00;5112829;28;20048;-66
2023/01/09 01:19:34;;;;;;;3.05;2.85;;;;;;;4.88;93.67;98690.28;5113987;28;20052;-67
2023/01/09 01:22:05;;;;;;;3.53;2.88;;;;;;;4.86;93.53;98689.44;5114453;28;20058;-67
2023/01/09 01:24:33;;;;;;;2.10;1.80;;;;;;;4.84;93.72;98676.78;5113819;28;20060;-66
2023/01/09 01:27:02;;;;;;;2.30;2.07;;;;;;;4.85;93.71;98677.66;5114218;28;20044;-66
2023/01/09 01:29:31;;;;;;;3.70;3.40;;;;;;;4.84;93.66;98671.75;5114169;28;20822;-66
2023/01/09 01:32:00;;;;;;;3.90;3.35;;;;;;;4.81;93.61;98671.72;5113836;28;20050;-66
2023/01/09 01:34:29;;;;;;;4.97;4.55;;;;;;;4.79;93.52;98663.28;5113756;28;20097;-66
2023/01/09 01:36:58;;;;;;;3.05;2.33;;;;;;;4.80;93.67;98648.97;5113817;28;20063;-66
2023/01/09 01:39:28;;;;;;;3.22;2.33;;;;;;;4.78;93.64;98651.47;5114237;28;20075;-66
2023/01/09 01:41:57;;;;;;;2.88;2.67;;;;;;;4.78;93.59;98641.34;5114113;28;20097;-66
2023/01/09 01:44:54;;;;;;;15.33;2.77;;;;;;;4.77;93.77;98634.63;5115918;28;20554;-66
2023/01/09 01:47:28;;;;;;;4.72;4.28;;;;;;;4.75;93.38;98631.25;5111594;28;20059;-66
2023/01/09 01:49:57;;;;;;;1.40;1.30;;;;;;;4.72;93.41;98618.59;5117809;28;20048;-66
2023/01/09 01:52:26;;;;;;;2.70;2.45;;;;;;;4.79;93.29;98632.09;5118051;28;20104;-66
2023/01/09 01:54:56;;;;;;;1.95;1.75;;;;;;;4.81;93.35;98623.69;5117598;28;20079;-66
2023/01/09 01:57:26;;;;;;;3.38;3.08;;;;;;;4.86;93.34;98622.03;5117733;28;20505;-66
2023/01/09 01:59:59;;;;;;;1.85;1.75;;;;;;;4.91;93.52;98620.38;5117565;28;20088;-66
2023/01/09 02:02:32;;;;;;;2.85;2.58;;;;;;;4.95;93.48;98614.47;5118152;28;20043;-67
2023/01/09 02:05:05;;;;;;;3.08;2.85;;;;;;;4.98;93.43;98608.59;5117720;28;20120;-66
2023/01/09 02:07:34;;;;;;;;;;;;;;;5.02;93.61;98590.91;5117844;28;20050;-66
2023/01/09 02:10:04;;;;;;;1.60;1.50;;;;;;;5.09;93.90;98587.56;5117701;28;19926;-66
2023/01/09 02:12:33;;;;;;;1.13;1.02;;;;;;;5.14;94.05;98575.78;5117364;28;20047;-66
2023/01/09 02:15:06;;;;;;;3.97;1.87;;;;;;;5.19;93.99;98579.19;5117301;28;20052;-67
2023/01/09 02:17:57;;;;;;;1.10;1.08;;;;;;;5.24;93.99;98569.91;5117611;28;20413;-66
2023/01/09 02:20:42;;;;;;;1.88;1.58;;;;;;;5.27;94.08;98567.41;5117256;28;20047;-66
2023/01/09 02:23:39;;;;;;;5.30;4.30;;;;;;;5.32;94.31;98553.09;5117484;28;20039;-66
2023/01/09 02:26:34;;;;;;;2.95;1.23;;;;;;;5.39;94.22;98549.72;5116928;28;20052;-66
2023/01/09 02:29:28;;;;;;;1.58;1.45;;;;;;;5.44;94.73;98557.31;5117062;27;20136;-66
2023/01/09 02:32:05;;;;;;;1.95;0.93;;;;;;;5.61;94.99;98547.22;5114797;28;20138;-66
2023/01/09 02:34:45;;;;;;;1.92;1.77;;;;;;;5.83;94.70;98549.72;5117488;28;20498;-66
2023/01/09 02:37:25;;;;;;;1.77;1.17;;;;;;;5.90;94.66;98545.56;5116817;28;20126;-66
2023/01/09 02:40:04;;;;;;;2.22;1.83;;;;;;;6.40;95.08;98543.78;5117116;28;20130;-65
2023/01/09 02:42:36;;;;;;;2.00;1.90;;;;;;;7.13;95.71;98524.03;5116967;28;20054;-65
2023/01/09 02:45:05;;;;;;;0.80;0.80;;;;;;;7.44;95.38;98528.06;5116660;28;20047;-66
2023/01/09 02:47:37;;;;;;;;;;;;;;;7.62;95.13;98537.25;5117340;28;20047;-65
2023/01/09 02:50:10;;;;;;;0.65;0.65;;;;;;;7.89;94.86;98534.47;5116653;28;20014;-66
2023/01/09 02:53:05;;;;;;;1.65;1.48;;;;;;;8.17;93.69;98524.06;5116621;28;20044;-66
2023/01/09 02:55:50;;;;;;;0.80;0.80;;;;;;;8.38;93.24;98514.53;5102820;28;20058;-67
2023/01/09 02:58:32;;;;;;;1.48;1.38;;;;;;;8.48;92.15;98513.59;5116409;28;20047;-67
2023/01/09 03:01:12;;;;;;;1.17;1.08;;;;;;;8.61;89.82;98511.75;5116737;28;20400;-67
2023/01/09 03:03:49;;;;;;;1.08;1.00;;;;;;;8.67;88.33;98516.75;5116408;28;20035;-67
2023/01/09 03:06:22;;;;;;;1.33;1.05;;;;;;;8.68;87.53;98524.38;5116255;28;20134;-67
2023/01/09 03:08:55;;;;;;;1.25;1.15;;;;;;;8.66;86.99;98510.00;5116587;28;20054;-70
2023/01/09 03:11:28;;;;;;;9.57;1.80;;;;;;;8.53;85.96;98475.38;5116267;28;20138;-68
2023/01/09 03:14:07;;;;;;;1.05;1.00;;;;;;;8.72;86.14;98522.63;5116513;28;20071;-68
2023/01/09 03:16:38;;;;;;;1.20;1.10;;;;;;;8.73;85.55;98516.69;5116496;28;20050;-68
2023/01/09 03:19:13;;;;;;;1.00;1.00;;;;;;;8.72;85.71;98499.75;5116104;28;20554;-68
2023/01/09 03:21:45;;;;;;;0.63;0.63;;;;;;;8.66;85.73;98504.91;5116073;28;20048;-67
2023/01/09 03:24:14;;;;;;;0.55;0.55;;;;;;;8.61;86.41;98506.66;5116306;28;20481;-68
2023/01/09 03:26:43;;;;;;;1.23;1.13;;;;;;;8.53;86.31;98503.34;5115859;28;20043;-68
2023/01/09 03:29:11;;;;;;;0.90;0.90;;;;;;;8.48;86.75;98497.47;5116053;28;20394;-68
2023/01/09 03:31:40;;;;;;;0.68;0.68;;;;;;;8.48;87.29;98505.97;5116090;28;20081;-67
2023/01/09 03:34:11;;;;;;;1.55;1.35;;;;;;;8.48;87.94;98485.63;5115713;28;20043;-68
2023/01/09 03:36:40;;;;;;;0.55;0.55;;;;;;;8.52;88.16;98502.50;5115705;28;20032;-68
2023/01/09 03:39:09;;;;;;;;;;;;;;;8.51;88.14;98489.81;5116129;28;20130;-68
2023/01/09 03:41:37;;;;;;;0.85;0.85;;;;;;;8.51;88.11;98479.66;5115561;28;19969;-70
2023/01/09 03:44:06;;;;;;;0.50;0.50;;;;;;;8.54;88.11;98470.28;5115584;28;20036;-68
2023/01/09 03:46:35;;;;;;;0.60;0.60;;;;;;;8.58;88.14;98492.28;5115358;28;20039;-69
2023/01/09 03:49:04;;;;;;;0.70;0.70;;;;;;;8.60;88.79;98471.91;5115413;28;20067;-69
2023/01/09 03:51:34;;;;;;;0.70;0.70;;;;;;;8.59;87.87;98472.78;5115431;28;20371;-70
2023/01/09 03:54:03;;;;;;;0.52;0.52;;;;;;;8.60;88.60;98484.63;5115180;28;20054;-68
2023/01/09 03:56:32;;;;;;;1.23;1.13;;;;;;;8.56;88.05;98480.44;5115411;28;20048;-69
2023/01/09 03:59:01;;;;;;;2.90;1.60;;;;;;;8.51;88.96;98477.97;5115205;28;20031;-70
2023/01/09 04:01:29;;;;;;;0.50;0.50;;;;;;;8.53;89.32;98477.94;5115146;28;20280;-69
2023/01/09 04:03:58;;;;;;;1.00;0.80;;;;;;;8.58;88.67;98496.53;5115162;28;20048;-69
2023/01/09 04:06:27;;;;;;;1.13;1.07;;;;;;;8.58;88.95;98478.72;5115208;28;20044;-69
2023/01/09 04:08:57;;;;;;;2.47;2.00;;;;;;;8.57;88.76;98494.81;5115012;28;20127;-70
2023/01/09 04:11:26;;;;;;;0.85;0.85;;;;;;;8.53;89.41;98483.03;5115353;28;20044;-71
2023/01/09 04:13:55;;;;;;;0.60;0.60;;;;;;;8.49;89.48;98477.16;5115007;28;20397;-70
2023/01/09 04:16:24;;;;;;;0.93;0.93;;;;;;;8.49;88.71;98491.56;5114875;28;20046;-70
2023/01/09 04:18:53;;;;;;;0.73;0.73;;;;;;;8.53;89.27;98477.94;5115160;28;20067;-69
2023/01/09 04:21:21;;;;;;;0.63;0.63;;;;;;;8.50;89.67;98477.97;5114895;27;20043;-69
2023/01/09 04:23:50;;;;;;;0.57;0.55;;;;;;;8.53;89.53;98498.28;5114758;28;20497;-70
2023/01/09 04:26:21;;;;;;;0.93;0.80;;;;;;;8.51;89.51;98500.00;5114615;28;20122;-68
2023/01/09 04:28:50;;;;;;;1.27;1.13;;;;;;;8.46;89.37;98486.50;5114981;28;20073;-70
2023/01/09 04:31:18;;;;;;;2.88;1.10;;;;;;;8.48;88.95;98494.94;5114984;28;20036;-70
2023/01/09 04:33:47;;;;;;;0.40;0.40;;;;;;;8.50;89.28;98488.13;5114920;28;20119;-70
2023/01/09 04:36:16;;;;;;;0.40;0.40;;;;;;;8.38;89.99;98467.94;5114547;28;20050;-71
2023/01/09 04:38:45;;;;;;;0.70;0.70;;;;;;;8.51;89.72;98492.38;5114511;28;20131;-69
2023/01/09 04:41:47;;;;;;;2.43;1.43;;;;;;;8.46;89.19;98481.41;5114479;28;20040;-69
2023/01/09 04:44:04;;;;;;;0.40;0.40;;;;;;;8.45;89.83;98484.78;5114233;27;20051;-70
2023/01/09 04:46:33;;;;;;;0.85;0.85;;;;;;;8.40;89.50;98484.00;5114315;28;20255;-71
2023/01/09 04:49:02;;;;;;;1.67;1.58;;;;;;;8.48;90.37;98494.94;5114669;28;20081;-71
2023/01/09 04:51:30;;;;;;;0.50;0.50;;;;;;;8.48;89.55;98500.88;5114521;28;20036;-69
2023/01/09 04:53:59;;;;;;;1.20;1.10;;;;;;;8.48;90.17;98494.94;5114402;28;20093;-70
2023/01/09 04:56:28;;;;;;;0.67;0.67;;;;;;;8.47;90.01;98494.09;5114379;28;20051;-71
2023/01/09 04:58:57;;;;;;;0.60;0.60;;;;;;;8.45;89.83;98500.06;5114555;28;20063;-69
2023/01/09 05:01:27;;;;;;;1.57;1.47;;;;;;;8.42;90.73;98492.47;5114548;28;20192;-71
2023/01/09 05:03:56;;;;;;;0.68;0.68;;;;;;;8.37;89.80;98481.53;5113254;28;20404;-70
2023/01/09 05:06:25;;;;;;;0.63;0.63;;;;;;;8.44;90.14;98486.53;5114045;28;20036;-69
2023/01/09 05:08:55;;;;;;;0.90;0.90;;;;;;;8.43;90.72;98489.06;5114090;28;20146;-69
2023/01/09 05:11:25;;;;;;;0.50;0.50;;;;;;;8.45;90.64;98489.88;5113995;28;20311;-68
2023/01/09 05:13:54;;;;;;;0.40;0.40;;;;;;;8.46;90.24;98484.81;5114065;28;20043;-71
2023/01/09 05:16:23;;;;;;;2.07;1.20;;;;;;;8.49;90.90;98489.00;5114017;28;20044;-69
2023/01/09 05:18:56;;;;;;;0.45;0.45;;;;;;;8.46;90.98;98486.50;5113464;28;20039;-70
2023/01/09 05:21:25;;;;;;;1.13;1.00;;;;;;;8.42;91.42;98490.75;5114439;28;20039;-69
2023/01/09 05:23:54;;;;;;;0.67;0.67;;;;;;;8.40;90.66;98478.94;5113920;28;20035;-70
2023/01/09 05:26:23;;;;;;;1.63;1.52;;;;;;;8.42;91.51;98469.59;5113813;28;20152;-71
2023/01/09 05:28:52;;;;;;;;;;;;;;;8.45;91.17;98469.53;5114640;28;20424;-71
2023/01/09 05:31:21;;;;;;;1.02;1.00;;;;;;;8.49;91.25;98466.97;5113812;28;19920;-71
2023/01/09 05:33:50;;;;;;;0.50;0.50;;;;;;;8.54;90.87;98459.28;5113826;28;20513;-70
2023/01/09 05:36:20;;;;;;;0.97;0.83;;;;;;;8.58;91.34;98460.91;5079052;28;20047;-71
2023/01/09 05:38:49;;;;;;;0.60;0.60;;;;;;;8.60;90.47;98454.13;5113831;28;20288;-70
2023/01/09 05:41:18;;;;;;;0.60;0.60;;;;;;;8.56;90.18;98462.66;5112895;28;20055;-70
2023/01/09 05:43:47;;;;;;;1.67;1.58;;;;;;;8.55;90.39;98463.50;5114309;28;20288;-70
2023/01/09 05:46:17;;;;;;;1.45;1.35;;;;;;;8.53;90.19;98457.59;5112562;28;20044;-71
2023/01/09 05:48:46;;;;;;;2.47;1.63;;;;;;;8.51;90.13;98454.22;5113595;28;20089;-70
2023/01/09 05:51:15;;;;;;;0.77;0.77;;;;;;;8.49;90.55;98440.72;5113651;28;20036;-69
2023/01/09 05:53:45;;;;;;;0.87;0.87;;;;;;;8.48;89.86;98439.84;5113647;28;20096;-69
2023/01/09 05:56:14;;;;;;;0.47;0.47;;;;;;;8.57;89.76;98441.44;5113605;28;20039;-70
2023/01/09 05:58:43;;;;;;;0.67;0.67;;;;;;;8.59;90.00;98437.19;5113594;28;20040;-69
2023/01/09 06:01:11;;;;;;;0.63;0.63;;;;;;;8.57;90.20;98443.97;5112704;28;20291;-70
2023/01/09 06:03:40;;;;;;;0.43;0.43;;;;;;;8.55;89.98;98435.53;5113503;28;20505;-69
2023/01/09 06:06:09;;;;;;;0.82;0.82;;;;;;;8.55;90.55;98430.44;5113463;28;20047;-69
2023/01/09 06:08:38;;;;;;;1.02;1.00;;;;;;;8.49;90.20;98415.28;5113455;28;20148;-71
2023/01/09 06:11:09;;;;;;;0.38;0.38;;;;;;;8.54;89.90;98421.16;5113967;28;20493;-69
2023/01/09 06:13:37;;;;;;;1.40;0.75;;;;;;;8.60;89.94;98423.59;5113546;28;20400;-68
2023/01/09 06:16:07;;;;;;;0.50;0.50;;;;;;;8.59;89.40;98432.91;5113727;28;20085;-69
2023/01/09 06:18:36;;;;;;;0.40;0.40;;;;;;;8.50;89.76;98415.25;5114031;28;20394;-67
2023/01/09 06:21:05;;;;;;;0.73;0.73;;;;;;;8.55;89.43;98422.81;5113330;28;20482;-68
2023/01/09 06:23:34;;;;;;;1.55;1.05;;;;;;;8.53;89.56;98422.00;5113308;28;20036;-68
2023/01/09 06:26:03;;;;;;;1.23;0.95;;;;;;;8.51;89.48;98426.28;5113705;28;20401;-68
2023/01/09 06:28:33;;;;;;;0.40;0.40;;;;;;;8.51;89.71;98423.72;5113232;28;20044;-67
2023/01/09 06:31:02;;;;;;;0.80;0.80;;;;;;;8.54;89.12;98418.59;5114908;28;20126;-69
2023/01/09 06:33:32;;;;;;;0.90;0.90;;;;;;;8.57;88.76;98413.47;5117479;28;20437;-68
2023/01/09 06:36:00;;;;;;;0.75;0.75;;;;;;;8.58;88.88;98410.06;5116926;28;20048;-68
2023/01/09 06:38:29;;;;;;;0.97;0.97;;;;;;;8.58;89.02;98405.81;5115828;28;20439;-70
2023/01/09 06:40:58;;;;;;;0.50;0.50;;;;;;;8.52;87.82;98415.22;5116720;28;20040;-71
2023/01/09 06:43:27;;;;;;;1.77;1.37;;;;;;;8.50;87.38;98424.56;5116780;27;20084;-68
2023/01/09 06:45:58;;;;;;;0.90;0.90;;;;;;;8.49;87.07;98415.28;5116991;28;20554;-69
2023/01/09 06:48:27;;;;;;;0.63;0.63;;;;;;;8.45;87.92;98403.44;5116616;28;20036;-68
2023/01/09 06:50:56;;;;;;;0.60;0.60;;;;;;;8.39;88.79;98399.31;5116556;28;20039;-72
2023/01/09 06:53:25;;;;;;;1.50;1.40;;;;;;;8.44;88.50;98397.53;5116900;28;20556;-69
2023/01/09 06:55:53;;;;;;;0.97;0.97;;;;;;;8.48;88.77;98383.06;5116239;28;20052;-69
2023/01/09 06:58:22;;;;;;;1.47;1.10;;;;;;;8.54;88.23;98394.00;5116711;27;20428;-69
2023/01/09 07:00:52;;;;;;;1.10;1.05;;;;;;;8.53;87.92;98391.50;5116351;28;20061;-69
2023/01/09 07:03:23;;;;;;;1.70;0.80;;;;;;;8.57;87.70;98396.50;5116552;28;20402;-74
2023/01/09 07:05:52;;;;;;;0.98;0.98;;;;;;;8.58;87.36;98394.81;5116588;28;20105;-70
2023/01/09 07:08:20;;;;;;;0.60;0.60;;;;;;;8.57;87.20;98393.13;5116450;28;20047;-69
2023/01/09 07:10:49;;;;;;;0.53;0.53;;;;;;;8.58;87.65;98395.66;5116249;28;20437;-69
2023/01/09 07:13:18;;;;;;;1.08;1.05;;;;;;;8.57;88.11;98381.25;5116448;28;20093;-70
2023/01/09 07:15:48;;;;;;;1.33;1.23;;;;;;;8.56;87.33;98391.44;5116116;27;20130;-70
2023/01/09 07:18:18;;;;;;;0.55;0.55;;;;;;;8.57;88.15;98393.13;5116420;28;20062;-70
2023/01/09 07:20:48;;;;;;;1.10;1.08;;;;;;;8.57;87.46;98382.94;5115954;28;20046;-70
2023/01/09 07:23:17;;;;;;;0.68;0.68;;;;;;;8.55;87.96;98384.69;5116019;28;20379;-69
2023/01/09 07:25:46;;;;;;;0.70;0.70;;;;;;;8.45;87.07;98372.94;5115877;28;20044;-70
2023/01/09 07:28:15;;;;;;;0.60;0.60;;;;;;;8.52;87.87;98384.72;5115809;28;20032;-68
2023/01/09 07:30:44;;;;;;;0.90;0.68;;;;;;;8.51;88.19;98373.72;5116033;28;20493;-70
2023/01/09 07:33:13;;;;;;;0.57;0.57;;;;;;;8.53;87.71;98378.78;5116292;28;20032;-70
2023/01/09 07:35:42;;;;;;;1.30;1.13;;;;;;;8.56;88.33;98391.44;5115713;28;20065;-70
2023/01/09 07:38:12;;;;;;;1.85;1.75;;;;;;;8.57;88.53;98388.03;5115635;28;20043;-69
2023/01/09 07:40:41;;;;;;;0.70;0.70;;;;;;;8.57;88.89;98373.63;5115690;28;20092;-71
2023/01/09 07:43:10;;;;;;;1.47;1.37;;;;;;;8.59;88.88;98386.34;5115074;28;20126;-68
2023/01/09 07:45:39;;;;;;;1.25;1.02;;;;;;;8.54;88.39;98375.38;5115529;28;20135;-70
2023/01/09 07:48:08;;;;;;;0.70;0.70;;;;;;;8.56;88.65;98387.22;5115335;28;20039;-71
2023/01/09 07:50:36;;;;;;;0.87;0.87;;;;;;;8.55;88.43;98382.97;5115378;28;20035;-71
2023/01/09 07:53:05;;;;;;;1.90;1.60;;;;;;;8.55;88.21;98384.69;5115763;28;20120;-70
2023/01/09 07:55:35;;;;;;;0.50;0.50;;;;;;;8.53;88.95;98386.41;5115097;28;20139;-71
2023/01/09 07:58:04;;;;;;;0.60;0.60;;;;;;;8.51;88.68;98380.50;5115316;28;20286;-69
2023/01/09 08:00:33;;;;;;;0.73;0.73;;;;;;;8.49;89.11;98375.44;5115222;28;20047;-72
2023/01/09 08:03:02;;;;;;;0.53;0.53;;;;;;;8.51;89.27;98388.13;5115136;28;20042;-70
2023/01/09 08:05:31;;;;;;;0.77;0.77;;;;;;;8.59;89.19;98396.50;5111951;28;20089;-69
2023/01/09 08:08:00;;;;;;;1.35;1.25;;;;;;;8.60;89.46;98382.91;5114934;28;20058;-69
2023/01/09 08:10:29;;;;;;;1.00;0.90;;;;;;;8.60;89.73;98377.81;5103538;28;20405;-70
2023/01/09 08:12:59;;;;;;;2.17;1.45;;;;;;;8.59;89.43;98371.06;5108265;28;20047;-68
2023/01/09 08:15:28;;;;;;;0.43;0.43;;;;;;;8.56;89.34;98382.13;5103510;28;20047;-68
2023/01/09 08:17:57;;;;;;;0.57;0.57;;;;;;;8.56;90.28;98366.88;5094911;28;20039;-68
2023/01/09 08:20:26;;;;;;;1.00;1.00;;;;;;;8.57;89.65;98377.88;5094701;28;20123;-69
2023/01/09 08:22:55;;;;;;;0.95;0.95;;;;;;;8.58;89.62;98366.84;5094725;28;20042;-67
2023/01/09 08:25:24;;;;;;;0.35;0.35;;;;;;;8.58;89.67;98374.47;5101749;28;20044;-70
2023/01/09 08:27:53;;;;;;;1.03;0.60;;;;;;;8.63;90.57;98388.81;5094156;28;20131;-72
2023/01/09 08:30:23;;;;;;;0.73;0.73;;;;;;;8.66;90.75;98372.66;5099429;28;20300;-70
2023/01/09 08:32:54;;;;;;;0.73;0.73;;;;;;;8.66;90.91;98398.09;5107159;28;20048;-68
2023/01/09 08:35:23;;;;;;;1.30;1.20;;;;;;;8.64;90.18;98394.72;5114882;28;20104;-67
2023/01/09 08:37:51;;;;;;;1.98;1.80;;;;;;;8.60;90.79;98393.94;5114533;28;20040;-69
2023/01/09 08:40:20;;;;;;;0.70;0.70;;;;;;;8.62;91.27;98396.44;5114505;28;20488;-66
2023/01/09 08:48:09;;;;;;;1.17;0.65;;;;;;;8.59;91.63;98401.59;5093932;28;20058;-69
2023/01/09 08:50:38;;;;;;;1.20;1.05;;;;;;;8.61;92.12;98412.56;5094255;28;20474;-70
2023/01/09 08:53:07;;;;;;;2.17;1.98;;;;;;;8.61;91.79;98417.66;5093582;28;20040;-69
2023/01/09 08:55:35;;;;;;;0.50;0.50;;;;;;;8.59;92.56;98419.38;5093643;28;20095;-71
2023/01/09 08:58:04;;;;;;;0.50;0.50;;;;;;;8.58;92.59;98410.06;5093803;28;20065;-70
2023/01/09 09:00:34;;;;;;;0.57;0.57;;;;;;;8.61;92.88;98415.13;5097954;28;20104;-70
2023/01/09 09:03:03;;;;;;;0.73;0.73;;;;;;;8.59;92.08;98412.56;5104567;28;20051;-72
2023/01/09 09:05:33;;;;;;;0.75;0.75;;;;;;;8.54;92.35;98405.91;5094051;28;20036;-69
2023/01/09 09:08:03;;;;;;;1.23;1.13;;;;;;;8.58;92.01;98423.63;5094089;28;20393;-71
2023/01/09 09:10:31;;;;;;;1.55;1.13;;;;;;;8.59;92.90;98416.84;5094658;28;20131;-69
2023/01/09 09:13:00;;;;;;;1.40;0.83;;;;;;;8.58;92.45;98410.06;5100568;28;20094;-68
2023/01/09 09:15:29;;;;;;;0.75;0.75;;;;;;;8.56;92.65;98411.78;5093976;28;20040;-69
2023/01/09 09:18:02;;;;;;;0.88;0.88;;;;;;;8.56;93.00;98416.88;5093580;28;20036;-69
2023/01/09 09:20:34;;;;;;;0.85;0.85;;;;;;;8.54;92.63;98413.53;5093621;28;20135;-68
2023/01/09 09:23:03;;;;;;;0.45;0.45;;;;;;;8.54;92.73;98418.59;5101446;28;20056;-68
2023/01/09 09:25:32;;;;;;;1.05;0.95;;;;;;;8.52;92.27;98415.22;5108017;28;20138;-67
2023/01/09 09:28:01;;;;;;;0.70;0.70;;;;;;;8.48;92.27;98418.66;5093739;28;20044;-68
2023/01/09 09:30:30;;;;;;;0.70;0.70;;;;;;;8.47;92.58;98411.94;5093512;28;20094;-68
2023/01/09 09:33:03;;;;;;;1.40;0.83;;;;;;;8.45;92.67;98409.38;5093481;28;20043;-68
2023/01/09 09:35:33;;;;;;;1.15;1.05;;;;;;;8.44;93.47;98406.88;5093813;28;20685;-69
2023/01/09 09:38:05;;;;;;;0.55;0.50;;;;;;;8.42;92.59;98398.44;5093786;28;20071;-68
2023/01/09 09:41:06;;;;;;;0.75;0.75;;;;;;;8.42;93.14;98406.06;5093678;28;20055;-68
2023/01/09 09:46:43;;;;;;;1.15;1.05;;;;;;;8.42;92.83;98378.09;5093411;28;20131;-67
2023/01/09 09:49:19;;;;;;;1.33;1.17;;;;;;;8.44;93.30;98367.03;5093547;28;20379;-69
2023/01/09 09:52:00;;;;;;;0.38;0.38;;;;;;;8.51;92.98;98372.88;5093276;28;20051;-69
2023/01/09 09:54:34;;;;;;;0.63;0.63;;;;;;;8.53;93.11;98371.16;5093041;28;20106;-69
2023/01/09 09:57:05;;;;;;;0.65;0.65;;;;;;;8.56;92.57;98360.94;5096539;28;20433;-67
2023/01/09 09:59:37;;;;;;;0.82;0.80;;;;;;;8.58;93.38;98364.31;5113063;28;20134;-69
2023/01/09 10:02:24;;;;;;;1.42;1.17;;;;;;;8.61;93.26;98366.81;5105586;28;20120;-68
2023/01/09 10:05:00;;;;;;;0.55;0.55;;;;;;;8.59;92.17;98360.91;5099988;28;20035;-69
2023/01/09 10:07:35;;;;;;;0.60;0.60;;;;;;;8.61;92.22;98359.19;5097123;28;20565;-70
2023/01/09 10:10:14;;;;;;;0.85;0.63;;;;;;;8.61;92.26;98360.00;5097125;28;20103;-68
2023/01/09 10:12:52;;;;;;;1.35;1.15;;;;;;;8.64;92.50;98362.50;5097018;28;20052;-67
2023/01/09 10:15:30;;;;;;;0.50;0.50;;;;;;;8.65;92.29;98370.97;5097132;28;20450;-66
2023/01/09 10:18:13;;;;;;;0.68;0.68;;;;;;;8.63;91.94;98367.63;5096904;28;20553;-67
2023/01/09 10:20:56;;;;;;;0.52;0.52;;;;;;;8.61;91.71;98367.63;5096921;28;20054;-68
2023/01/09 10:23:56;;;;;;;0.80;0.80;;;;;;;8.59;92.02;98361.72;5097123;28;20048;-69
2023/01/09 10:26:29;;;;;;;2.30;1.10;;;;;;;8.58;91.82;98369.38;5097017;28;20387;-67
2023/01/09 10:29:24;;;;;;;0.50;0.50;;;;;;;8.57;92.15;98381.25;5096649;28;20044;-68
2023/01/09 10:32:04;;;;;;;0.68;0.68;;;;;;;8.60;92.45;98377.81;5096908;28;20456;-66
2023/01/09 10:34:47;;;;;;;0.63;0.63;;;;;;;8.64;92.84;98379.44;5100177;28;20123;-67
2023/01/09 10:37:21;;;;;;;0.85;0.60;;;;;;;8.68;92.27;98381.13;5117107;28;20044;-68
2023/01/09 10:39:55;;;;;;;1.35;1.25;;;;;;;8.68;92.47;98381.13;5117124;28;20139;-64
2023/01/09 10:42:32;;;;;;;3.40;1.85;;;;;;;8.65;93.08;98370.97;5117148;28;20044;-66
2023/01/09 10:45:06;;;;;;;1.15;1.05;;;;;;;8.62;92.93;98366.78;5115656;28;20046;-67
2023/01/09 10:47:37;;;;;;;0.50;0.50;;;;;;;8.67;92.87;98372.63;5110230;28;20040;-67
2023/01/09 10:50:19;;;;;;;0.95;0.95;;;;;;;8.69;93.21;98367.50;5096693;28;20454;-67
2023/01/09 10:52:53;;;;;;;0.40;0.40;;;;;;;8.70;92.80;98369.22;5096543;28;20502;-66
2023/01/09 10:55:40;;;;;;;2.60;1.70;;;;;;;8.69;92.68;98373.44;5095987;28;20063;-67
2023/01/09 10:58:12;;;;;;;0.70;0.70;;;;;;;8.72;92.91;98367.47;5096160;28;20379;-66
2023/01/09 11:00:42;;;;;;;1.48;1.38;;;;;;;8.71;93.30;98373.41;5096432;28;20477;-65
2023/01/09 11:03:13;;;;;;;0.80;0.80;;;;;;;8.73;93.56;98374.25;5096244;28;20536;-67
2023/01/09 11:05:42;;;;;;;0.73;0.73;;;;;;;8.73;93.59;98379.34;5103991;28;20040;-65
2023/01/09 11:08:24;;;;;;;0.70;0.70;;;;;;;8.74;93.55;98381.00;5103066;28;20040;-66
2023/01/09 11:10:55;;;;;;;0.43;0.43;;;;;;;8.74;93.85;98378.47;5095838;28;20508;-66
2023/01/09 11:13:28;;;;;;;1.90;1.45;;;;;;;8.71;93.83;98371.72;5095857;28;20072;-66
2023/01/09 11:16:03;;;;;;;1.65;1.30;;;;;;;8.69;93.25;98377.69;5095292;28;20044;-66
2023/01/09 11:18:32;;;;;;;1.85;1.30;;;;;;;8.71;94.23;98370.88;5095590;28;20052;-65
2023/01/09 11:21:15;;;;;;;1.02;0.85;;;;;;;8.73;93.74;98384.44;5095643;28;20059;-66
2023/01/09 11:23:45;;;;;;;0.73;0.73;;;;;;;8.71;93.19;98370.88;5096188;28;20455;-66
2023/01/09 11:26:24;;;;;;;0.50;0.50;;;;;;;8.69;93.92;98373.44;5095580;28;20555;-65
2023/01/09 11:29:07;;;;;;;0.95;0.90;;;;;;;8.68;93.92;98370.94;5105861;28;20062;-66
2023/01/09 11:31:36;;;;;;;0.75;0.75;;;;;;;8.68;93.67;98370.94;5116120;28;20130;-66
2023/01/09 11:34:07;;;;;;;4.63;1.92;;;;;;;8.66;93.75;98365.03;5098873;28;20119;-66
2023/01/09 11:36:36;;;;;;;4.30;1.05;;;;;;;8.65;93.58;98366.75;5095362;28;20093;-66
2023/01/09 11:39:19;;;;;;;1.85;1.75;;;;;;;8.63;93.58;98357.44;5095469;28;20065;-66
2023/01/09 11:41:53;;;;;;;1.20;0.80;;;;;;;8.61;93.79;98351.53;5095234;28;20040;-66
2023/01/09 11:44:23;;;;;;;0.57;0.57;;;;;;;8.62;94.58;98358.28;5095215;28;20064;-66
2023/01/09 11:46:52;;;;;;;1.00;0.93;;;;;;;8.60;94.30;98352.41;5095707;28;20067;-66
2023/01/09 11:49:24;;;;;;;0.37;0.37;;;;;;;8.59;94.70;98350.75;5095059;28;20079;-66
2023/01/09 11:52:15;;;;;;;0.90;0.88;;;;;;;8.59;94.88;98340.56;5094821;28;20044;-66
2023/01/09 11:54:50;;;;;;;0.75;0.75;;;;;;;8.57;95.30;98342.25;5100489;28;20077;-66
2023/01/09 11:57:21;;;;;;;3.85;2.08;;;;;;;8.58;94.68;98341.41;5105404;28;20032;-66
2023/01/09 11:59:51;;;;;;;2.47;2.28;;;;;;;8.58;95.26;98341.41;5103738;28;20040;-65
2023/01/09 12:02:41;;;;;;;6.78;2.75;;;;;;;8.59;94.93;98340.56;5103917;28;20520;-65
2023/01/09 12:05:22;;;;;;;0.43;0.43;;;;;;;8.60;94.71;98339.69;5103605;28;20040;-66
2023/01/09 12:08:05;;;;;;;0.95;0.95;;;;;;;8.56;95.17;98330.44;5094510;28;20114;-66
2023/01/09 12:11:03;;;;;;;1.65;1.50;;;;;;;8.53;95.51;98338.09;5094095;28;20097;-66
2023/01/09 12:13:50;;;;;;;0.93;0.93;;;;;;;8.52;95.58;98338.94;5104079;28;20044;-66
2023/01/09 12:16:31;;;;;;;0.93;0.85;;;;;;;8.52;95.62;98354.19;5104606;28;20036;-65
2023/01/09 12:19:16;;;;;;;0.75;0.75;;;;;;;8.49;95.54;98349.19;5104828;28;20040;-65